Terminal Aerodrome Forecast
Issued by NWS Wilmington, NC

Home | Current Version | Previous Version | Text Only | Print | Product List | Glossary On
Versions: 1 2 3 4 5 6 7 8 9 10 11 12 13 14 15
584
FTUS42 KILM 302322
TAFMYR
TAF
KMYR 302322Z 0100/0124 20010KT P6SM SKC
     FM010400 20005KT P6SM SCT005
      TEMPO 0108/0112 BKN005
     FM011200 16005KT P6SM BKN025
     FM011800 19007KT P6SM BKN035
      AMD LTD TO CLD VIS AND WIND 0103/0110=

USA.gov is the U.S. government's official web portal to all federal, state and local government web resources and services.